Thomson Majesty — 9HA2188 — position and weather

sailwx.info

Track history (hours):
 
Tides and Currents Weather Stations Pressure Air Temp Water Temp Dewpoint Dewpoint Depression Visibility Wind Speed Wind Dir Waves Ship Positions

Thomson Majesty

Last reported at 2014-Sep-17 01:06 UTC. Time now 2014-Sep-18 15:40 UTC.
Position N 36°49' E 023°32'.

Length 207 m; draft 6.2 m.

Type: Ship. MMSI: 248124000.

Date/timePositionNaut miles runAvg speedWind from/ knotsBaromVisibWave heightAir tempDewpointWater temp
2014-Sep-17 01:06N 36°49' E 023°32'811.7
2014-Sep-17 00:26N 36°53' E 023°40'1111.9
2014-Sep-16 23:33N 37°00' E 023°50'1212.0
2014-Sep-16 22:32N 37°09' E 024°01'1211.6
2014-Sep-16 21:31N 37°20' E 023°56'1211.2
2014-Sep-16 20:28N 37°30' E 023°49'1011.3
2014-Sep-16 19:33N 37°39' E 023°42'1211.8
2014-Sep-16 18:33N 37°50' E 023°36'7 6.4
2014-Sep-16 17:31N 37°56' E 023°38'0 0.0
2014-Sep-16 16:31N 37°56' E 023°38'0 0.0
2014-Sep-16 15:31N 37°56' E 023°38'0 0.0
2014-Sep-16 14:31N 37°56' E 023°38'0 0.0
2014-Sep-16 13:31N 37°56' E 023°38'0 0.0
2014-Sep-16 12:31N 37°56' E 023°38'0 0.0
2014-Sep-16 11:31N 37°56' E 023°38'0 0.0
2014-Sep-16 10:31N 37°56' E 023°38'0 0.0
2014-Sep-16 09:31N 37°56' E 023°38'0 0.0
2014-Sep-16 08:31N 37°56' E 023°38'0 0.0
2014-Sep-16 07:31N 37°56' E 023°38'0 0.0
2014-Sep-16 06:31N 37°56' E 023°38'0 0.0
2014-Sep-16 05:31N 37°56' E 023°38'0 0.0
2014-Sep-16 04:31N 37°56' E 023°38'1 1.5
2014-Sep-16 03:33N 37°56' E 023°37'5 5.4
2014-Sep-16 02:33N 37°51' E 023°40'2016.4
2014-Sep-16 01:19N 37°36' E 023°58'1317.3
2014-Sep-16 00:33N 37°31' E 024°13'1717.0
2014-Sep-15 23:33N 37°31' E 024°34'1716.9
2014-Sep-15 22:33N 37°32' E 024°56'1313.4
2014-Sep-15 21:34N 37°30' E 025°12'1414.1
2014-Sep-15 20:34N 37°34' E 025°29'1313.3
2014-Sep-15 19:33N 37°38' E 025°46'1413.8
2014-Sep-15 18:33N 37°41' E 026°02'1414.0
2014-Sep-15 17:33N 37°45' E 026°19'1313.2
2014-Sep-15 16:33N 37°49' E 026°35'1313.3
2014-Sep-15 15:32N 37°51' E 026°52'1613.3
2014-Sep-15 14:19N 37°52' E 027°13'2 1.8
2014-Sep-15 13:07N 37°52' E 027°15'0 0.0
2014-Sep-15 11:32N 37°52' E 027°15'0 0.0
2014-Sep-15 09:32N 37°52' E 027°15'0 0.0
2014-Sep-15 05:32N 37°52' E 027°15'0 0.0
2014-Sep-15 04:32N 37°52' E 027°15'13 9.1
2014-Sep-15 03:04N 37°52' E 026°58'913.9
2014-Sep-15 02:26N 37°51' E 026°47'1213.1
2014-Sep-15 01:32N 37°51' E 026°32'1312.9
2014-Sep-15 00:33N 37°46' E 026°18'1313.0
2014-Sep-14 23:32N 37°52' E 026°03'1211.9
2014-Sep-14 22:31N 37°47' E 025°50'1212.6
2014-Sep-14 21:33N 37°36' E 025°42'1413.8
2014-Sep-14 20:33N 37°32' E 025°25'7 7.0
2014-Sep-14 19:34N 37°27' E 025°19'0 0.1
2014-Sep-14 18:31N 37°27' E 025°19'0 0.0
2014-Sep-14 17:31N 37°27' E 025°19'0 0.0
2014-Sep-14 16:32N 37°27' E 025°19'0 0.0
2014-Sep-14 15:31N 37°27' E 025°19'0 0.0
2014-Sep-14 14:32N 37°27' E 025°19'0 0.0
2014-Sep-14 13:31N 37°27' E 025°19'0 0.0
2014-Sep-14 12:31N 37°27' E 025°19'0 0.0
2014-Sep-14 11:31N 37°27' E 025°19'0 0.0
2014-Sep-14 10:31N 37°27' E 025°19'0 0.0
2014-Sep-14 09:32N 37°27' E 025°19'0 0.0
2014-Sep-14 08:31N 37°27' E 025°19'0 0.0
2014-Sep-14 07:31N 37°27' E 025°19'0 0.0
2014-Sep-14 06:32N 37°27' E 025°19'0 0.0
2014-Sep-14 05:31N 37°27' E 025°19'0 0.0
2014-Sep-14 04:31N 37°27' E 025°19'0 0.3
2014-Sep-14 03:33N 37°27' E 025°19'1514.7
2014-Sep-14 02:33N 37°19' E 025°04'1716.8
2014-Sep-14 01:33N 37°10' E 024°46'5413.4
2014-Sep-13 21:33N 36°38' E 023°53'1413.5
2014-Sep-13 20:32N 36°28' E 023°40'1313.2
2014-Sep-13 19:32N 36°20' E 023°28'2712.7
2014-Sep-13 17:26N 36°03' E 023°01'  
Track history (hours):
 
Tides and Currents Weather Stations Pressure Air Temp Water Temp Dewpoint Dewpoint Depression Visibility Wind Speed Wind Dir Waves Ship Positions

Thomson Majesty

Last reported at 2014-Sep-17 01:06 UTC. Time now 2014-Sep-18 15:40 UTC.
Position N 36°49' E 023°32'.

Length 207 m; draft 6.2 m.

Type: Ship. MMSI: 248124000.

Date/timePositionNaut miles runAvg speedWind from/ knotsBaromVisibWave heightAir tempDewpointWater temp
2014-Sep-17 01:06N 36°49' E 023°32'811.7
2014-Sep-17 00:26N 36°53' E 023°40'1111.9
2014-Sep-16 23:33N 37°00' E 023°50'1212.0
2014-Sep-16 22:32N 37°09' E 024°01'1211.6
2014-Sep-16 21:31N 37°20' E 023°56'1211.2
2014-Sep-16 20:28N 37°30' E 023°49'1011.3
2014-Sep-16 19:33N 37°39' E 023°42'1211.8
2014-Sep-16 18:33N 37°50' E 023°36'7 6.4
2014-Sep-16 17:31N 37°56' E 023°38'0 0.0
2014-Sep-16 16:31N 37°56' E 023°38'0 0.0
2014-Sep-16 15:31N 37°56' E 023°38'0 0.0
2014-Sep-16 14:31N 37°56' E 023°38'0 0.0
2014-Sep-16 13:31N 37°56' E 023°38'0 0.0
2014-Sep-16 12:31N 37°56' E 023°38'0 0.0
2014-Sep-16 11:31N 37°56' E 023°38'0 0.0
2014-Sep-16 10:31N 37°56' E 023°38'0 0.0
2014-Sep-16 09:31N 37°56' E 023°38'0 0.0
2014-Sep-16 08:31N 37°56' E 023°38'0 0.0
2014-Sep-16 07:31N 37°56' E 023°38'0 0.0
2014-Sep-16 06:31N 37°56' E 023°38'0 0.0
2014-Sep-16 05:31N 37°56' E 023°38'0 0.0
2014-Sep-16 04:31N 37°56' E 023°38'1 1.5
2014-Sep-16 03:33N 37°56' E 023°37'5 5.4
2014-Sep-16 02:33N 37°51' E 023°40'2016.4
2014-Sep-16 01:19N 37°36' E 023°58'1317.3
2014-Sep-16 00:33N 37°31' E 024°13'1717.0
2014-Sep-15 23:33N 37°31' E 024°34'1716.9
2014-Sep-15 22:33N 37°32' E 024°56'1313.4
2014-Sep-15 21:34N 37°30' E 025°12'1414.1
2014-Sep-15 20:34N 37°34' E 025°29'1313.3
2014-Sep-15 19:33N 37°38' E 025°46'1413.8
2014-Sep-15 18:33N 37°41' E 026°02'1414.0
2014-Sep-15 17:33N 37°45' E 026°19'1313.2
2014-Sep-15 16:33N 37°49' E 026°35'1313.3
2014-Sep-15 15:32N 37°51' E 026°52'1613.3
2014-Sep-15 14:19N 37°52' E 027°13'2 1.8
2014-Sep-15 13:07N 37°52' E 027°15'0 0.0
2014-Sep-15 11:32N 37°52' E 027°15'0 0.0
2014-Sep-15 09:32N 37°52' E 027°15'0 0.0
2014-Sep-15 05:32N 37°52' E 027°15'0 0.0
2014-Sep-15 04:32N 37°52' E 027°15'13 9.1
2014-Sep-15 03:04N 37°52' E 026°58'913.9
2014-Sep-15 02:26N 37°51' E 026°47'1213.1
2014-Sep-15 01:32N 37°51' E 026°32'1312.9
2014-Sep-15 00:33N 37°46' E 026°18'1313.0
2014-Sep-14 23:32N 37°52' E 026°03'1211.9
2014-Sep-14 22:31N 37°47' E 025°50'1212.6
2014-Sep-14 21:33N 37°36' E 025°42'1413.8
2014-Sep-14 20:33N 37°32' E 025°25'7 7.0
2014-Sep-14 19:34N 37°27' E 025°19'0 0.1
2014-Sep-14 18:31N 37°27' E 025°19'0 0.0
2014-Sep-14 17:31N 37°27' E 025°19'0 0.0
2014-Sep-14 16:32N 37°27' E 025°19'0 0.0
2014-Sep-14 15:31N 37°27' E 025°19'0 0.0
2014-Sep-14 14:32N 37°27' E 025°19'0 0.0
2014-Sep-14 13:31N 37°27' E 025°19'0 0.0
2014-Sep-14 12:31N 37°27' E 025°19'0 0.0
2014-Sep-14 11:31N 37°27' E 025°19'0 0.0
2014-Sep-14 10:31N 37°27' E 025°19'0 0.0
2014-Sep-14 09:32N 37°27' E 025°19'0 0.0
2014-Sep-14 08:31N 37°27' E 025°19'0 0.0
2014-Sep-14 07:31N 37°27' E 025°19'0 0.0
2014-Sep-14 06:32N 37°27' E 025°19'0 0.0
2014-Sep-14 05:31N 37°27' E 025°19'0 0.0
2014-Sep-14 04:31N 37°27' E 025°19'0 0.3
2014-Sep-14 03:33N 37°27' E 025°19'1514.7
2014-Sep-14 02:33N 37°19' E 025°04'1716.8
2014-Sep-14 01:33N 37°10' E 024°46'5413.4
2014-Sep-13 21:33N 36°38' E 023°53'1413.5
2014-Sep-13 20:32N 36°28' E 023°40'1313.2
2014-Sep-13 19:32N 36°20' E 023°28'2712.7
2014-Sep-13 17:26N 36°03' E 023°01'  

Dump ship's entire track history